Aviation Digital Data Service (ADDS)

Output produced by METARs form (1818 UTC 24 June 2019)
found at http://www.aviationweather.gov/metar/data/
 
Forecast for: VVDN (DA NANG INTL ARP, VN)
Text: TAF VVDN 241700Z 2418/2518 22004KT 9999 FEW015
Forecast period: 1800 UTC 24 June 2019 to 0300 UTC 25 June 2019
Forecast type: FROM: standard forecast or significant change
Winds: from the SW (220 degrees) at 5 MPH (4 knots; 2.1 m/s)
Visibility: 6 or more miles 10+ km)
Ceiling: at least 12,000 feet AGL
Clouds: few clouds at 1500 feet AGL
Weather: no significant weather forecast for this period
Text: BECMG 2503/2504 07010KT
Forecast period: 0300 to 1800 UTC 25 June 2019
Forecast type: BECOMING: Conditions expected to become as follows by 0400 UTC 25 June 2019
Winds: from the ENE (70 degrees) at 12 MPH (10 knots; 5.1 m/s)
Visibility: 6 or more miles 10+ km)
Ceiling: at least 12,000 feet AGL
Clouds: few clouds at 1500 feet AGL
Weather: no significant weather forecast for this period
Text: TEMPO 2509/2512 TS FEW013 FEW015CB SCT060
Forecast period: 0900 to 1200 UTC 25 June 2019
Forecast type: TEMPORARY: The following changes expected for less than half the time period
Visibility: missing
Ceiling: at least 12,000 feet AGL
Clouds: few clouds at 1300 feet AGL
few clouds at 1500 feet AGL
scattered clouds at 6000 feet AGL
Weather: TS  (thunderstorm)